createdAt,value
2022-08-18T00:00:03.345Z,4.82
2022-08-18T00:02:32.762Z,5.00
2022-08-18T00:05:00.837Z,4.88
2022-08-18T00:07:32.752Z,5.60
2022-08-18T00:12:33.496Z,4.50
2022-08-18T00:15:04.701Z,4.20
2022-08-18T00:17:34.648Z,4.97
2022-08-18T00:20:03.122Z,5.15
2022-08-18T00:22:31.011Z,5.05
2022-08-18T00:27:29.749Z,4.97
2022-08-18T00:30:00.229Z,5.45
2022-08-18T00:32:33.538Z,5.45
2022-08-18T00:37:38.628Z,5.20
2022-08-18T00:40:09.427Z,4.78
2022-08-18T00:42:43.873Z,4.05
2022-08-18T00:45:15.421Z,4.90
2022-08-18T00:47:43.455Z,4.07
2022-08-18T00:50:18.626Z,4.10
2022-08-18T00:52:51.067Z,4.65
2022-08-18T00:55:20.003Z,4.70
2022-08-18T00:57:50.885Z,4.90
2022-08-18T01:00:19.479Z,4.93
2022-08-18T01:05:28.459Z,4.63
2022-08-18T01:07:56.492Z,4.97
2022-08-18T01:10:25.637Z,5.20
2022-08-18T01:12:56.048Z,5.40
2022-08-18T01:15:29.037Z,5.20
2022-08-18T01:18:16.697Z,5.15
2022-08-18T01:21:11.257Z,5.18
2022-08-18T01:23:41.479Z,6.40
2022-08-18T01:28:40.879Z,5.55
2022-08-18T01:33:42.245Z,5.72
2022-08-18T01:36:16.503Z,5.85
2022-08-18T01:41:26.357Z,5.75
2022-08-18T01:46:27.430Z,4.85
2022-08-18T01:48:55.353Z,5.43
2022-08-18T01:51:38.889Z,4.95
2022-08-18T01:54:12.657Z,4.85
2022-08-18T01:56:42.315Z,4.82
2022-08-18T01:59:13.703Z,5.22
2022-08-18T02:01:50.439Z,5.43
2022-08-18T02:04:41.360Z,5.70
2022-08-18T02:09:43.194Z,5.10
2022-08-18T02:12:12.283Z,5.80
2022-08-18T02:14:40.817Z,5.15
2022-08-18T02:17:11.120Z,5.22
2022-08-18T02:19:40.909Z,5.10
2022-08-18T02:22:09.965Z,4.97
2022-08-18T02:24:38.444Z,5.07
2022-08-18T02:27:08.759Z,5.45
2022-08-18T02:29:37.547Z,5.38
2022-08-18T02:32:06.891Z,4.78
2022-08-18T02:34:34.926Z,4.68
2022-08-18T02:37:03.408Z,4.95
2022-08-18T02:39:31.679Z,4.57
2022-08-18T02:41:59.686Z,5.78
2022-08-18T02:44:28.886Z,4.88
2022-08-18T02:46:56.798Z,5.32
2022-08-18T02:49:25.480Z,4.20
2022-08-18T02:51:54.184Z,4.95
2022-08-18T02:54:24.131Z,5.15
2022-08-18T02:56:54.063Z,5.05
2022-08-18T02:59:25.311Z,5.40
2022-08-18T03:01:56.642Z,4.68
2022-08-18T03:04:29.822Z,4.60
2022-08-18T03:07:02.072Z,5.15
2022-08-18T03:09:30.837Z,5.20
2022-08-18T03:11:59.855Z,4.65
2022-08-18T03:14:28.191Z,4.65
2022-08-18T03:16:58.236Z,4.90
2022-08-18T03:19:28.481Z,4.82
2022-08-18T03:21:59.395Z,4.65
2022-08-18T03:24:32.915Z,4.85
2022-08-18T03:27:02.374Z,5.22
2022-08-18T03:29:32.726Z,5.07
2022-08-18T03:37:00.855Z,5.25
2022-08-18T03:39:29.834Z,4.80
2022-08-18T03:42:01.573Z,4.35
2022-08-18T03:44:31.539Z,4.78
2022-08-18T03:47:00.408Z,5.00
2022-08-18T03:49:29.785Z,4.35
2022-08-18T03:54:31.134Z,5.13
2022-08-18T03:57:00.275Z,4.82
2022-08-18T03:59:30.735Z,5.05
2022-08-18T04:01:58.858Z,4.68
2022-08-18T04:04:29.641Z,4.80
2022-08-18T04:07:00.174Z,5.13
2022-08-18T04:09:30.844Z,4.40
2022-08-18T04:12:03.639Z,4.60
2022-08-18T04:14:32.811Z,5.45
2022-08-18T04:17:00.956Z,5.03
2022-08-18T04:19:31.055Z,4.53
2022-08-18T04:21:59.094Z,4.53
2022-08-18T04:27:01.114Z,4.97
2022-08-18T04:29:29.639Z,5.28
2022-08-18T04:31:57.775Z,5.00
2022-08-18T04:34:25.616Z,5.07
2022-08-18T04:36:54.795Z,5.18
2022-08-18T04:39:24.107Z,5.05
2022-08-18T04:41:52.573Z,5.30
2022-08-18T04:44:21.767Z,5.65
2022-08-18T04:46:52.220Z,5.22
2022-08-18T04:49:21.667Z,5.45
2022-08-18T04:52:34.278Z,5.30
2022-08-18T04:54:54.752Z,5.57
2022-08-18T04:57:23.161Z,5.05
2022-08-18T04:59:52.541Z,5.60
2022-08-18T05:02:22.585Z,5.63
2022-08-18T05:04:52.565Z,6.43
2022-08-18T05:07:23.695Z,5.18
2022-08-18T05:09:52.071Z,5.80
2022-08-18T05:12:25.991Z,6.18
2022-08-18T05:14:57.419Z,6.22
2022-08-18T05:17:30.400Z,6.80
2022-08-18T05:22:31.111Z,5.30
2022-08-18T05:25:04.427Z,5.97
2022-08-18T05:30:04.582Z,5.95
2022-08-18T05:32:47.859Z,5.85
2022-08-18T05:35:21.443Z,6.03
2022-08-18T05:38:04.646Z,5.85
2022-08-18T05:40:33.071Z,6.13
2022-08-18T05:43:03.395Z,6.15
2022-08-18T05:45:31.439Z,6.72
2022-08-18T05:48:01.609Z,6.25
2022-08-18T05:50:33.176Z,6.10
2022-08-18T05:53:13.349Z,6.10
2022-08-18T05:56:03.743Z,5.50
2022-08-18T05:58:36.663Z,5.90
2022-08-18T06:01:08.984Z,5.93
2022-08-18T06:03:45.151Z,6.32
2022-08-18T06:06:20.900Z,6.47
2022-08-18T06:08:57.446Z,6.50
2022-08-18T06:11:25.891Z,6.68
2022-08-18T06:13:59.538Z,6.38
2022-08-18T06:16:41.726Z,7.20
2022-08-18T06:19:28.078Z,6.53
2022-08-18T06:22:04.696Z,7.60
2022-08-18T06:24:39.655Z,8.00
2022-08-18T06:27:16.197Z,8.63
2022-08-18T06:29:58.248Z,8.20
2022-08-18T06:32:36.851Z,7.45
2022-08-18T06:35:18.239Z,7.18
2022-08-18T06:38:13.857Z,7.22
2022-08-18T06:40:41.897Z,7.45
2022-08-18T06:43:15.811Z,7.53
2022-08-18T06:45:52.217Z,6.32
2022-08-18T06:48:28.359Z,7.13
2022-08-18T06:53:53.701Z,7.20
2022-08-18T06:56:26.883Z,7.40
2022-08-18T06:58:55.394Z,7.25
2022-08-18T07:01:26.317Z,7.80
2022-08-18T07:03:58.299Z,6.90
2022-08-18T07:06:30.952Z,7.20
2022-08-18T07:09:20.585Z,8.05
2022-08-18T07:12:01.180Z,7.43
2022-08-18T07:14:29.078Z,7.78
2022-08-18T07:17:12.909Z,8.10
2022-08-18T07:19:41.436Z,8.45
2022-08-18T07:22:11.777Z,7.93
2022-08-18T07:24:42.681Z,8.43
2022-08-18T07:27:13.249Z,7.85
2022-08-18T07:32:34.492Z,8.10
2022-08-18T07:35:08.329Z,8.70
2022-08-18T07:37:42.127Z,8.13
2022-08-18T07:40:20.993Z,8.38
2022-08-18T07:43:01.268Z,8.40
2022-08-18T07:45:35.723Z,7.78
2022-08-18T07:48:34.970Z,8.75
2022-08-18T07:53:55.760Z,9.60
2022-08-18T07:56:34.872Z,7.97
2022-08-18T07:59:10.519Z,7.93
2022-08-18T08:01:45.244Z,8.52
2022-08-18T08:04:26.342Z,8.50
2022-08-18T08:07:22.900Z,8.65
2022-08-18T08:09:58.230Z,7.88
2022-08-18T08:12:34.607Z,8.27
2022-08-18T08:15:13.689Z,9.45
2022-08-18T08:17:54.233Z,8.18
2022-08-18T08:20:32.935Z,8.13
2022-08-18T08:23:17.387Z,7.72
2022-08-18T08:26:00.708Z,8.30
2022-08-18T08:31:35.914Z,8.38
2022-08-18T08:34:06.641Z,7.93
2022-08-18T08:36:40.050Z,8.10
2022-08-18T08:39:13.504Z,8.70
2022-08-18T08:41:45.931Z,8.40
2022-08-18T08:44:21.524Z,9.20
2022-08-18T08:46:56.515Z,8.15
2022-08-18T08:49:33.743Z,8.10
2022-08-18T08:52:12.134Z,8.32
2022-08-18T08:54:46.790Z,8.50
2022-08-18T08:57:17.326Z,8.00
2022-08-18T08:59:47.796Z,8.30
2022-08-18T09:02:47.926Z,8.98
2022-08-18T09:05:21.074Z,7.88
2022-08-18T09:08:22.219Z,9.07
2022-08-18T09:11:23.350Z,9.00
2022-08-18T09:14:27.094Z,8.20
2022-08-18T09:17:12.066Z,7.43
2022-08-18T09:20:09.391Z,7.57
2022-08-18T09:22:47.927Z,8.25
2022-08-18T09:25:34.044Z,8.98
2022-08-18T09:28:12.629Z,8.80
2022-08-18T09:30:47.608Z,8.90
2022-08-18T09:33:34.715Z,8.90
2022-08-18T09:36:25.836Z,8.85
2022-08-18T09:39:18.518Z,8.85
2022-08-18T09:41:54.416Z,8.48
2022-08-18T09:45:05.018Z,9.63
2022-08-18T09:48:02.945Z,9.27
2022-08-18T09:51:18.262Z,10.05
2022-08-18T09:54:13.655Z,9.40
2022-08-18T09:57:08.636Z,9.95
2022-08-18T09:59:59.668Z,9.52
2022-08-18T10:03:06.210Z,9.55
2022-08-18T10:05:36.599Z,8.90
2022-08-18T10:08:35.282Z,9.77
2022-08-18T10:11:24.402Z,10.05
2022-08-18T10:14:08.281Z,8.80
2022-08-18T10:17:16.016Z,8.73
2022-08-18T10:19:48.959Z,8.63
2022-08-18T10:22:39.581Z,9.13
2022-08-18T10:25:22.994Z,8.75
2022-08-18T10:27:59.505Z,8.18
2022-08-18T10:31:09.772Z,8.20
2022-08-18T10:33:59.792Z,8.00
2022-08-18T10:37:01.731Z,7.78
2022-08-18T10:39:46.538Z,7.90
2022-08-18T10:45:07.676Z,8.15
2022-08-18T10:47:39.291Z,7.80
2022-08-18T10:50:19.635Z,7.70
2022-08-18T10:56:04.120Z,7.60
2022-08-18T10:58:45.470Z,7.60
2022-08-18T11:01:30.990Z,7.85
2022-08-18T11:04:14.514Z,8.10
2022-08-18T11:07:07.870Z,8.23
2022-08-18T11:15:48.001Z,8.23
2022-08-18T11:18:32.078Z,7.78
2022-08-18T11:24:16.100Z,7.57
2022-08-18T11:26:58.900Z,7.80
2022-08-18T11:29:32.149Z,8.35
2022-08-18T11:34:45.451Z,8.73
2022-08-18T11:37:25.610Z,7.43
2022-08-18T11:42:31.167Z,8.32
2022-08-18T11:45:07.898Z,6.55
2022-08-18T11:47:39.008Z,6.85
2022-08-18T11:50:12.501Z,6.72
2022-08-18T11:52:54.021Z,6.55
2022-08-18T11:55:31.861Z,7.25
2022-08-18T11:58:02.436Z,6.93
2022-08-18T12:00:53.584Z,7.00
2022-08-18T12:06:27.094Z,8.48
2022-08-18T12:09:00.482Z,7.10
2022-08-18T12:11:31.445Z,7.90
2022-08-18T12:14:30.773Z,8.27
2022-08-18T12:16:59.763Z,7.80
2022-08-18T12:19:31.064Z,8.65
2022-08-18T12:22:01.574Z,7.95
2022-08-18T12:24:36.797Z,7.82
2022-08-18T12:27:20.336Z,9.32
2022-08-18T12:29:52.196Z,8.77
2022-08-18T12:40:32.567Z,8.82
2022-08-18T12:45:31.140Z,8.93
2022-08-18T12:48:04.416Z,7.53
2022-08-18T12:53:06.124Z,8.80
2022-08-18T13:03:09.773Z,8.20
2022-08-18T13:05:38.405Z,7.35
2022-08-18T13:08:12.456Z,7.68
2022-08-18T13:10:45.461Z,7.70
2022-08-18T13:13:14.253Z,7.85
2022-08-18T13:18:28.580Z,7.57
2022-08-18T13:23:25.636Z,7.13
2022-08-18T13:26:01.406Z,6.88
2022-08-18T13:33:33.835Z,5.15
2022-08-18T13:36:09.862Z,5.80
2022-08-18T13:41:06.443Z,5.30
2022-08-18T13:46:09.955Z,5.68
2022-08-18T13:58:53.318Z,5.55
2022-08-18T14:01:45.317Z,5.85
2022-08-18T14:06:46.787Z,6.00
2022-08-18T14:09:27.681Z,6.00
2022-08-18T14:17:17.064Z,6.65
2022-08-18T14:20:04.637Z,6.68
2022-08-18T14:22:50.382Z,6.22
2022-08-18T14:28:04.541Z,6.43
2022-08-18T14:30:33.472Z,6.57
2022-08-18T14:33:03.052Z,6.18
2022-08-18T14:36:04.378Z,6.05
2022-08-18T14:40:49.410Z,6.20
2022-08-18T14:45:53.832Z,6.55
2022-08-18T14:53:29.290Z,6.47
2022-08-18T15:00:58.224Z,6.18
2022-08-18T15:03:31.565Z,6.70
2022-08-18T15:08:35.405Z,6.38
2022-08-18T15:11:06.223Z,6.55
2022-08-18T15:13:41.441Z,6.30
2022-08-18T15:16:13.484Z,6.13
2022-08-18T15:26:57.880Z,6.72
2022-08-18T15:34:31.621Z,6.22
2022-08-18T15:37:09.922Z,5.82
2022-08-18T15:39:37.992Z,5.88
2022-08-18T15:44:39.851Z,6.25
2022-08-18T15:47:12.627Z,5.75
2022-08-18T15:49:41.809Z,6.60
2022-08-18T15:54:42.344Z,9.75
2022-08-18T16:00:02.259Z,5.95
2022-08-18T16:02:30.187Z,5.72
2022-08-18T16:05:09.206Z,5.30
2022-08-18T16:10:10.452Z,6.18
2022-08-18T16:12:38.294Z,6.65
2022-08-18T16:17:43.058Z,6.18
2022-08-18T16:25:16.555Z,6.38
2022-08-18T16:27:45.439Z,5.95
2022-08-18T16:37:42.333Z,7.00
2022-08-18T16:40:10.765Z,6.75
2022-08-18T16:42:38.762Z,7.28
2022-08-18T16:45:08.959Z,7.55
2022-08-18T16:47:38.978Z,7.78
2022-08-18T16:55:08.656Z,8.35
2022-08-18T17:00:42.443Z,8.98
2022-08-18T17:03:29.450Z,9.23
2022-08-18T17:06:01.651Z,8.13
2022-08-18T17:08:29.636Z,8.13
2022-08-18T17:10:58.821Z,7.88
2022-08-18T17:13:26.682Z,8.15
2022-08-18T17:15:54.502Z,8.82
2022-08-18T17:18:22.323Z,8.20
2022-08-18T17:20:50.468Z,8.25
2022-08-18T17:23:18.947Z,8.20
2022-08-18T17:28:23.846Z,8.32
2022-08-18T17:30:54.505Z,7.72
2022-08-18T17:33:27.401Z,8.07
2022-08-18T17:35:58.533Z,7.72
2022-08-18T17:38:29.993Z,7.88
2022-08-18T17:40:59.010Z,7.60
2022-08-18T17:46:06.427Z,7.85
2022-08-18T17:48:40.989Z,7.90
2022-08-18T17:51:31.619Z,7.75
2022-08-18T17:54:01.362Z,8.90
2022-08-18T17:56:37.502Z,8.40
2022-08-18T17:59:42.958Z,7.85
2022-08-18T18:02:28.827Z,7.88
2022-08-18T18:07:29.424Z,9.50
2022-08-18T18:10:01.706Z,7.95
2022-08-18T18:12:32.194Z,7.40
2022-08-18T18:15:03.292Z,7.80
2022-08-18T18:17:37.581Z,7.85
2022-08-18T18:20:25.907Z,8.82
2022-08-18T18:22:53.775Z,8.10
2022-08-18T18:25:34.609Z,8.07
2022-08-18T18:30:32.888Z,8.30
2022-08-18T18:33:03.888Z,8.10
2022-08-18T18:35:34.102Z,8.45
2022-08-18T18:38:06.271Z,8.18
2022-08-18T18:40:37.981Z,8.75
2022-08-18T18:43:27.140Z,9.10
2022-08-18T18:46:07.425Z,9.25
2022-08-18T18:48:48.318Z,9.10
2022-08-18T18:51:33.500Z,8.50
2022-08-18T18:54:17.840Z,9.10
2022-08-18T18:56:52.093Z,9.20
2022-08-18T19:02:33.694Z,9.00
2022-08-18T19:05:16.683Z,9.00
2022-08-18T19:08:07.982Z,9.52
2022-08-18T19:10:41.631Z,9.68
2022-08-18T19:13:33.156Z,10.70
2022-08-18T19:16:23.445Z,11.30
2022-08-18T19:19:35.142Z,10.63
2022-08-18T19:22:05.277Z,11.55
2022-08-18T19:24:40.356Z,11.68
2022-08-18T19:27:23.441Z,11.35
2022-08-18T19:29:55.342Z,12.27
2022-08-18T19:32:32.247Z,12.25
2022-08-18T19:35:04.445Z,11.40
2022-08-18T19:37:56.262Z,11.88
2022-08-18T19:40:29.388Z,12.57
2022-08-18T19:43:10.716Z,14.10
2022-08-18T19:45:49.958Z,13.55
2022-08-18T19:48:23.470Z,13.52
2022-08-18T19:50:58.004Z,13.45
2022-08-18T19:53:53.695Z,14.07
2022-08-18T19:56:40.313Z,14.32
2022-08-18T20:02:22.575Z,13.75
2022-08-18T20:05:04.619Z,15.05
2022-08-18T20:08:02.106Z,15.13
2022-08-18T20:10:57.936Z,14.45
2022-08-18T20:13:35.296Z,14.77
2022-08-18T20:16:45.071Z,16.45
2022-08-18T20:20:03.725Z,14.95
2022-08-18T20:22:35.791Z,16.13
2022-08-18T20:25:26.061Z,16.38
2022-08-18T20:28:14.821Z,15.65
2022-08-18T20:30:55.544Z,15.30
2022-08-18T20:33:32.054Z,14.90
2022-08-18T20:36:14.999Z,17.10
2022-08-18T20:38:45.692Z,15.65
2022-08-18T20:41:47.501Z,16.08
2022-08-18T20:44:29.925Z,17.05
2022-08-18T20:47:14.317Z,15.80
2022-08-18T20:49:54.098Z,16.40
2022-08-18T20:52:34.732Z,15.43
2022-08-18T20:55:12.893Z,16.95
2022-08-18T21:00:14.945Z,16.40
2022-08-18T21:02:52.260Z,16.33
2022-08-18T21:05:27.668Z,16.98
2022-08-18T21:08:06.144Z,16.15
2022-08-18T21:10:35.358Z,16.48
2022-08-18T21:13:05.976Z,15.63
2022-08-18T21:15:37.141Z,16.17
2022-08-18T21:18:24.077Z,16.70
2022-08-18T21:20:54.720Z,15.75
2022-08-18T21:23:26.230Z,16.17
2022-08-18T21:25:58.023Z,16.77
2022-08-18T21:28:28.990Z,17.60
2022-08-18T21:31:42.438Z,17.38
2022-08-18T21:33:53.297Z,17.13
2022-08-18T21:36:23.402Z,17.73
2022-08-18T21:38:58.506Z,16.13
2022-08-18T21:41:36.019Z,18.42
2022-08-18T21:44:08.272Z,17.17
2022-08-18T21:46:36.339Z,17.02
2022-08-18T21:49:06.644Z,16.38
2022-08-18T21:51:46.805Z,16.85
2022-08-18T21:54:17.857Z,16.88
2022-08-18T21:56:45.869Z,16.35
2022-08-18T21:59:15.925Z,16.65
2022-08-18T22:01:52.176Z,17.65
2022-08-18T22:04:27.238Z,16.65
2022-08-18T22:06:58.278Z,17.92
2022-08-18T22:09:45.925Z,17.92
2022-08-18T22:12:40.892Z,17.50
2022-08-18T22:15:11.486Z,18.33
2022-08-18T22:17:50.724Z,18.27
2022-08-18T22:20:52.353Z,17.50
2022-08-18T22:23:55.412Z,18.67
2022-08-18T22:26:27.283Z,16.73
2022-08-18T22:31:45.028Z,17.80
2022-08-18T22:34:16.292Z,16.95
2022-08-18T22:36:49.483Z,17.50
2022-08-18T22:39:26.198Z,18.25
2022-08-18T22:41:54.722Z,17.58
2022-08-18T22:44:23.263Z,19.23
2022-08-18T22:46:52.701Z,18.13
2022-08-18T22:49:21.487Z,18.60
2022-08-18T22:51:52.288Z,19.23
2022-08-18T22:54:21.557Z,18.00
2022-08-18T22:56:54.087Z,18.55
2022-08-18T22:59:25.513Z,17.58
2022-08-18T23:01:56.191Z,16.85
2022-08-18T23:04:25.736Z,18.17
2022-08-18T23:06:55.794Z,17.58
2022-08-18T23:09:25.875Z,17.90
2022-08-18T23:11:56.361Z,19.10
2022-08-18T23:14:24.278Z,17.63
2022-08-18T23:16:52.775Z,17.13
2022-08-18T23:19:22.296Z,18.80
2022-08-18T23:21:51.741Z,17.55
2022-08-18T23:24:22.481Z,18.13
2022-08-18T23:26:50.662Z,17.45
2022-08-18T23:29:19.931Z,18.73
2022-08-18T23:31:49.490Z,18.23
2022-08-18T23:34:18.652Z,16.48
2022-08-18T23:36:52.285Z,17.92
2022-08-18T23:39:21.803Z,16.45
2022-08-18T23:41:50.526Z,16.42
2022-08-18T23:44:18.788Z,17.25
2022-08-18T23:46:47.261Z,16.63
2022-08-18T23:49:15.845Z,16.85
2022-08-18T23:51:47.025Z,17.83
2022-08-18T23:54:18.056Z,16.65
2022-08-18T23:56:47.768Z,16.25
2022-08-18T23:59:20.838Z,16.10
